Time;durP1;ratioP1;P1;durP2;ratioP2;P2;SDS_P1;SDS_P2;PMS_P1;PMS_P2;Temp;Humidity;BMP_temperature;BMP_pressure;BME280_temperature;BME280_humidity;BME280_pressure;Samples;Min_cycle;Max_cycle;Signal;HPM_P1;HPM_P2
2022/07/13 00:02:21;;;;;;;1.75;1.52;;;;;;;26.92;44.82;101950.41;5028755;28;20025;-70
2022/07/13 00:04:46;;;;;;;1.85;1.52;;;;;;;26.91;44.86;101954.00;5029511;28;20029;-70
2022/07/13 00:07:12;;;;;;;1.60;1.50;;;;;;;26.90;45.04;101948.69;5029593;28;20022;-70
2022/07/13 00:09:37;;;;;;;1.50;1.40;;;;;;;26.88;44.99;101948.78;5029613;28;20509;-71
2022/07/13 00:12:03;;;;;;;2.00;1.50;;;;;;;26.88;45.13;101955.91;5028534;28;20053;-70
2022/07/13 00:14:29;;;;;;;1.63;1.35;;;;;;;26.88;44.76;101945.19;5028944;28;20033;-71
2022/07/13 00:16:54;;;;;;;1.60;1.40;;;;;;;26.89;44.88;101944.31;5028927;28;20124;-71
2022/07/13 00:19:19;;;;;;;1.50;1.40;;;;;;;26.87;45.04;101932.75;5029445;28;20026;-70
2022/07/13 00:21:45;;;;;;;1.75;1.38;;;;;;;26.87;45.01;101930.94;5029006;28;20109;-69
2022/07/13 00:24:14;;;;;;;1.60;1.40;;;;;;;26.87;44.81;101938.97;5028981;28;20482;-70
2022/07/13 00:26:41;;;;;;;1.75;1.50;;;;;;;26.86;44.92;101942.56;5028887;28;20052;-70
2022/07/13 00:29:06;;;;;;;1.98;1.63;;;;;;;26.88;44.99;101935.41;5029067;28;20092;-70
2022/07/13 00:31:31;;;;;;;2.03;1.40;;;;;;;26.87;44.95;101936.28;5028116;28;20419;-70
2022/07/13 00:33:57;;;;;;;1.70;1.45;;;;;;;26.86;44.81;101925.63;5028415;28;20053;-70
2022/07/13 00:36:22;;;;;;;2.13;1.50;;;;;;;26.86;44.92;101928.31;5029117;28;20416;-70
2022/07/13 00:38:48;;;;;;;1.77;1.50;;;;;;;26.87;44.86;101925.59;5028636;28;20036;-70
2022/07/13 00:41:13;;;;;;;1.52;1.42;;;;;;;26.87;44.92;101906.00;5028074;28;20029;-69
2022/07/13 00:43:39;;;;;;;1.60;1.40;;;;;;;26.83;45.25;101905.25;5028650;28;20049;-70
2022/07/13 00:46:04;;;;;;;1.98;1.60;;;;;;;26.86;45.00;101905.13;5028651;28;20049;-70
2022/07/13 00:48:30;;;;;;;1.92;1.50;;;;;;;26.87;45.10;101900.63;5028476;28;20030;-70
2022/07/13 00:50:55;;;;;;;1.95;1.70;;;;;;;26.85;44.71;101905.16;5028227;28;20037;-70
2022/07/13 00:53:23;;;;;;;2.00;1.50;;;;;;;26.85;44.81;101905.16;5028033;28;20057;-70
2022/07/13 00:55:49;;;;;;;2.78;1.60;;;;;;;26.85;44.87;101891.78;5026912;28;20494;-70
2022/07/13 00:58:14;;;;;;;1.80;1.60;;;;;;;26.85;44.82;101886.44;5028299;28;20113;-70
2022/07/13 01:00:40;;;;;;;1.83;1.60;;;;;;;26.85;44.88;101898.00;5028023;28;20025;-70
2022/07/13 01:03:05;;;;;;;2.65;1.60;;;;;;;26.85;44.83;101895.34;5028296;28;20071;-70
2022/07/13 01:05:31;;;;;;;1.60;1.50;;;;;;;26.85;44.94;101887.31;5027158;28;20029;-70
2022/07/13 01:07:56;;;;;;;2.10;1.60;;;;;;;26.85;44.88;101884.63;5028192;28;20061;-70
2022/07/13 01:10:22;;;;;;;1.90;1.60;;;;;;;26.82;44.95;101882.09;5026101;28;20033;-70
2022/07/13 01:12:48;;;;;;;2.38;1.70;;;;;;;26.84;45.18;101871.31;5027771;28;20036;-70
2022/07/13 01:15:13;;;;;;;1.98;1.60;;;;;;;26.84;45.14;101857.91;5027130;28;20017;-71
2022/07/13 01:17:39;;;;;;;1.90;1.63;;;;;;;26.84;44.96;101865.94;5010264;28;20029;-70
2022/07/13 01:20:06;;;;;;;2.10;1.80;;;;;;;26.85;45.07;101859.66;5027605;28;20037;-70
2022/07/13 01:22:35;;;;;;;2.40;1.80;;;;;;;26.86;44.85;101878.34;5027108;28;20039;-70
2022/07/13 01:25:02;;;;;;;2.30;1.70;;;;;;;26.87;44.81;101873.88;5027409;28;20029;-70
2022/07/13 01:27:28;;;;;;;1.92;1.58;;;;;;;26.85;45.02;101879.28;5026724;28;20471;-70
2022/07/13 01:29:54;;;;;;;2.05;1.60;;;;;;;26.84;44.89;101876.66;5026289;28;20048;-70
2022/07/13 01:32:19;;;;;;;2.17;1.65;;;;;;;26.85;44.77;101871.25;5025986;28;20029;-70
2022/07/13 01:34:44;;;;;;;1.90;1.60;;;;;;;26.85;44.79;101863.22;5027695;28;20060;-71
2022/07/13 01:37:10;;;;;;;1.70;1.60;;;;;;;26.84;44.81;101868.63;5027809;28;20053;-70
2022/07/13 01:39:35;;;;;;;2.10;1.70;;;;;;;26.85;45.06;101878.41;5026777;28;20617;-71
2022/07/13 01:42:01;;;;;;;2.53;1.75;;;;;;;26.85;44.88;101875.72;5026201;28;20029;-70
2022/07/13 01:44:26;;;;;;;1.73;1.60;;;;;;;26.83;44.86;101864.22;5027718;28;20036;-70
2022/07/13 01:46:51;;;;;;;2.33;1.67;;;;;;;26.84;45.01;101857.91;5027328;28;20471;-70
2022/07/13 01:49:17;;;;;;;2.60;1.90;;;;;;;26.86;44.89;101840.88;5028144;28;20040;-71
2022/07/13 01:51:42;;;;;;;2.05;1.80;;;;;;;26.85;44.85;101831.13;5025046;28;20092;-71
2022/07/13 01:54:08;;;;;;;2.00;1.80;;;;;;;26.84;44.87;101821.34;5026706;28;20036;-70
2022/07/13 01:56:33;;;;;;;2.15;1.80;;;;;;;26.83;44.77;101803.56;5026134;28;20440;-70
2022/07/13 01:58:59;;;;;;;2.28;1.60;;;;;;;26.84;44.84;101809.75;5027200;28;20115;-70
2022/07/13 02:01:25;;;;;;;2.08;1.70;;;;;;;26.84;44.93;101809.75;5026528;28;20033;-71
2022/07/13 02:03:50;;;;;;;1.80;1.70;;;;;;;26.86;44.74;101826.63;5027409;28;20133;-70
2022/07/13 02:06:16;;;;;;;1.95;1.73;;;;;;;26.86;44.70;101822.16;5026932;28;20472;-70
2022/07/13 02:08:41;;;;;;;1.92;1.73;;;;;;;26.87;44.73;101828.38;5025476;28;20041;-70
2022/07/13 02:11:06;;;;;;;2.13;1.90;;;;;;;26.84;44.84;101825.81;5025701;28;20025;-70
2022/07/13 02:13:32;;;;;;;2.13;1.90;;;;;;;26.87;44.62;101818.56;5027408;28;20554;-70
2022/07/13 02:15:57;;;;;;;2.10;1.90;;;;;;;26.89;44.73;101821.22;5026839;28;20116;-70
2022/07/13 02:18:24;;;;;;;2.10;1.90;;;;;;;26.86;44.79;101822.16;5026174;28;20038;-71
2022/07/13 02:20:49;;;;;;;1.80;1.60;;;;;;;26.86;44.75;101819.47;5025683;28;20065;-70
2022/07/13 02:23:15;;;;;;;2.33;1.80;;;;;;;26.88;44.60;101822.09;5026353;28;20504;-70
2022/07/13 02:25:40;;;;;;;2.20;2.00;;;;;;;26.91;44.61;101813.97;5026968;28;20365;-70
2022/07/13 02:28:06;;;;;;;2.08;1.88;;;;;;;26.89;44.60;101821.22;5027346;28;20120;-70
2022/07/13 02:30:32;;;;;;;2.75;2.10;;;;;;;26.86;44.87;101819.47;5026210;28;20028;-70
2022/07/13 02:32:58;;;;;;;2.00;1.70;;;;;;;26.85;44.67;101820.41;5026089;28;20044;-70
2022/07/13 02:35:23;;;;;;;3.05;2.00;;;;;;;26.88;44.67;101817.66;5025139;28;20447;-70
2022/07/13 02:37:48;;;;;;;2.30;2.10;;;;;;;26.86;44.57;101814.13;5026195;28;20052;-71
2022/07/13 02:40:14;;;;;;;2.38;1.90;;;;;;;26.89;44.48;101813.19;5027385;28;20040;-70
2022/07/13 02:42:39;;;;;;;2.20;2.00;;;;;;;26.89;44.47;101814.06;5026390;28;20021;-70
2022/07/13 02:45:06;;;;;;;2.83;2.03;;;;;;;26.87;44.82;101807.84;5026623;28;20051;-70
2022/07/13 02:47:32;;;;;;;2.42;2.10;;;;;;;26.86;44.66;101803.44;5026370;28;20052;-70
2022/07/13 02:49:57;;;;;;;2.80;2.00;;;;;;;26.85;44.70;101793.66;5026175;28;20388;-70
2022/07/13 02:52:22;;;;;;;2.67;1.90;;;;;;;26.86;44.93;101790.06;5025735;28;20057;-70
2022/07/13 02:54:48;;;;;;;2.28;1.80;;;;;;;26.85;44.74;101782.06;5026777;28;20053;-69
2022/07/13 02:57:13;;;;;;;2.17;1.95;;;;;;;26.85;44.57;101790.09;5026964;28;20087;-70
2022/07/13 02:59:39;;;;;;;2.10;1.90;;;;;;;26.84;44.93;101785.69;5026901;28;20029;-70
2022/07/13 03:02:06;;;;;;;2.47;2.20;;;;;;;26.82;44.74;101777.75;5022984;28;20336;-71
2022/07/13 03:04:32;;;;;;;2.10;1.90;;;;;;;26.82;44.68;101779.53;5026255;28;20640;-70
2022/07/13 03:06:58;;;;;;;2.10;1.88;;;;;;;26.81;44.69;101785.81;5025107;28;20071;-70
2022/07/13 03:09:23;;;;;;;2.25;2.05;;;;;;;26.80;44.65;101790.28;5026586;28;20073;-70
2022/07/13 03:11:49;;;;;;;3.03;1.88;;;;;;;26.80;44.78;101779.59;5025757;28;20025;-70
2022/07/13 03:14:14;;;;;;;2.60;2.10;;;;;;;26.80;44.58;101773.38;5026305;28;20116;-70
2022/07/13 03:16:43;;;;;;;2.20;2.00;;;;;;;26.79;44.67;101768.94;5026117;28;20120;-69
2022/07/13 03:19:09;;;;;;;2.38;1.90;;;;;;;26.80;44.70;101773.38;5026604;28;20105;-70
2022/07/13 03:21:35;;;;;;;2.25;1.92;;;;;;;26.79;44.74;101769.81;5025657;28;20037;-69
2022/07/13 03:24:00;;;;;;;2.65;2.00;;;;;;;26.79;44.68;101759.13;5024791;28;20025;-70
2022/07/13 03:26:26;;;;;;;2.30;2.10;;;;;;;26.82;44.75;101759.00;5026642;28;20048;-70
2022/07/13 03:28:52;;;;;;;2.55;2.20;;;;;;;26.80;44.78;101758.19;5026260;28;20073;-71
2022/07/13 03:31:17;;;;;;;2.40;2.20;;;;;;;26.79;44.86;101755.56;5025454;28;20033;-70
2022/07/13 03:33:43;;;;;;;2.45;2.20;;;;;;;26.78;44.66;101751.13;5030102;28;20087;-70
2022/07/13 03:36:09;;;;;;;2.30;2.10;;;;;;;26.79;44.68;101755.56;5028198;28;20079;-70
2022/07/13 03:38:35;;;;;;;2.20;2.00;;;;;;;26.77;44.84;101755.66;5029993;28;20039;-70
2022/07/13 03:41:01;;;;;;;2.22;2.03;;;;;;;26.78;44.70;101759.16;5029472;28;20033;-70
2022/07/13 03:43:26;;;;;;;2.33;2.13;;;;;;;26.77;44.61;101760.13;5030020;28;20037;-70
2022/07/13 03:45:52;;;;;;;2.70;2.10;;;;;;;26.78;44.83;101767.19;5028985;28;20045;-70
2022/07/13 03:48:18;;;;;;;2.35;2.15;;;;;;;26.78;45.04;101756.50;5028591;28;20079;-70
2022/07/13 03:50:44;;;;;;;2.38;2.10;;;;;;;26.77;44.84;101755.66;5028990;28;20036;-70
2022/07/13 03:53:10;;;;;;;2.20;2.00;;;;;;;26.75;44.73;101756.63;5028270;28;20076;-70
2022/07/13 03:55:36;;;;;;;2.35;2.10;;;;;;;26.76;44.73;101758.38;5029770;28;20030;-70
2022/07/13 03:58:02;;;;;;;2.40;2.10;;;;;;;26.76;44.62;101755.69;5028036;28;20484;-70
2022/07/13 04:00:27;;;;;;;2.28;2.08;;;;;;;26.75;44.89;101748.59;5028865;28;20037;-70
2022/07/13 04:02:52;;;;;;;2.50;2.30;;;;;;;26.78;44.48;101753.81;5029060;28;20519;-70
2022/07/13 04:05:18;;;;;;;2.55;2.20;;;;;;;26.77;44.74;101747.63;5029166;28;20025;-70
2022/07/13 04:07:43;;;;;;;2.58;2.38;;;;;;;26.77;44.79;101744.06;5029215;28;20108;-70
2022/07/13 04:10:09;;;;;;;2.97;2.20;;;;;;;26.75;44.63;101749.47;5029247;28;20408;-70
2022/07/13 04:12:34;;;;;;;2.42;2.17;;;;;;;26.76;44.75;101742.31;5028555;28;20060;-70
2022/07/13 04:14:59;;;;;;;2.85;2.10;;;;;;;26.75;44.71;101744.13;5027416;28;20814;-70
2022/07/13 04:17:25;;;;;;;2.35;2.15;;;;;;;26.73;44.88;101745.97;5029225;28;20033;-70
2022/07/13 04:19:50;;;;;;;5.30;2.00;;;;;;;26.73;44.58;101737.97;5027721;28;20033;-70
2022/07/13 04:22:15;;;;;;;2.50;2.30;;;;;;;26.71;44.83;101737.16;5028439;28;20106;-70
2022/07/13 04:24:41;;;;;;;2.40;2.20;;;;;;;26.73;44.68;101742.44;5028778;28;20523;-70
2022/07/13 04:27:06;;;;;;;3.38;2.00;;;;;;;26.70;44.81;101740.78;5027788;28;20033;-70
2022/07/13 04:29:31;;;;;;;2.40;2.20;;;;;;;26.70;44.72;101732.75;5029016;28;20048;-70
2022/07/13 04:31:57;;;;;;;2.40;2.20;;;;;;;26.72;44.73;101738.88;5027920;28;20040;-69
2022/07/13 04:34:22;;;;;;;2.63;2.30;;;;;;;26.73;44.88;101737.09;5028767;28;20036;-70
2022/07/13 04:36:47;;;;;;;2.63;2.28;;;;;;;26.73;44.75;101735.28;5028273;28;20033;-69
2022/07/13 04:39:13;;;;;;;2.47;2.28;;;;;;;26.71;44.69;101731.81;5027817;28;20025;-70
2022/07/13 04:41:38;;;;;;;2.47;2.28;;;;;;;26.73;44.99;101734.41;5026574;28;20135;-70
2022/07/13 04:44:04;;;;;;;2.28;2.08;;;;;;;26.73;44.75;101737.97;5028090;28;20613;-70
2022/07/13 04:46:29;;;;;;;2.65;2.13;;;;;;;26.74;44.58;101738.84;5028058;28;20029;-70
2022/07/13 04:48:55;;;;;;;2.40;2.20;;;;;;;26.76;44.76;101739.66;5028312;28;20191;-69
2022/07/13 04:51:20;;;;;;;2.78;2.20;;;;;;;26.72;44.76;101735.34;5026863;28;20115;-70
2022/07/13 04:53:45;;;;;;;2.50;2.20;;;;;;;26.72;44.75;101732.66;5028546;28;20041;-70
2022/07/13 04:56:14;;;;;;;2.88;2.30;;;;;;;26.71;44.82;101737.16;5028230;28;20116;-70
2022/07/13 04:58:39;;;;;;;2.40;2.20;;;;;;;26.72;44.63;101736.22;5026566;28;20115;-70
2022/07/13 05:01:06;;;;;;;2.47;2.20;;;;;;;26.70;44.65;101732.75;5027099;28;20730;-70
2022/07/13 05:03:32;;;;;;;2.60;2.13;;;;;;;26.71;44.62;101731.81;5028104;28;20025;-71
2022/07/13 05:05:57;;;;;;;2.90;2.10;;;;;;;26.69;44.94;101732.81;5028082;28;20025;-70
2022/07/13 05:08:23;;;;;;;2.72;2.30;;;;;;;26.72;44.74;101725.50;5027872;28;20048;-69
2022/07/13 05:10:49;;;;;;;2.45;2.10;;;;;;;26.68;44.59;101729.25;5027229;28;20041;-70
2022/07/13 05:13:14;;;;;;;2.75;2.30;;;;;;;26.68;44.77;101734.59;5027981;28;20116;-70
2022/07/13 05:15:40;;;;;;;2.67;2.30;;;;;;;26.66;44.72;101731.09;5027380;28;20426;-70
2022/07/13 05:18:05;;;;;;;2.40;2.08;;;;;;;26.66;44.86;101731.09;5027674;28;20110;-70
2022/07/13 05:20:30;;;;;;;2.38;2.17;;;;;;;26.66;44.87;101723.09;5027199;28;20030;-71
2022/07/13 05:22:56;;;;;;;2.88;2.30;;;;;;;26.67;44.72;101722.16;5026893;28;20519;-70
2022/07/13 05:25:21;;;;;;;3.33;2.22;;;;;;;26.64;45.07;101724.97;5026400;28;20112;-70
2022/07/13 05:27:47;;;;;;;2.45;2.25;;;;;;;26.62;44.79;101717.00;5027768;28;20025;-70
2022/07/13 05:30:12;;;;;;;2.53;2.33;;;;;;;26.65;44.96;101719.53;5027273;28;20075;-70
2022/07/13 05:32:37;;;;;;;2.53;2.33;;;;;;;26.64;44.88;101714.28;5026563;28;20025;-71
2022/07/13 05:35:03;;;;;;;2.60;2.33;;;;;;;26.62;45.29;101717.00;5027457;28;20043;-71
2022/07/13 05:37:29;;;;;;;2.75;2.50;;;;;;;26.64;45.21;101720.50;5026468;28;20053;-70
2022/07/13 05:39:54;;;;;;;2.80;2.50;;;;;;;26.64;44.87;101725.84;5027545;28;20399;-70
2022/07/13 05:42:20;;;;;;;2.95;2.40;;;;;;;26.65;44.63;101724.03;5025934;28;20037;-70
2022/07/13 05:44:45;;;;;;;2.75;2.40;;;;;;;26.64;44.81;101715.16;5027261;28;20505;-70
2022/07/13 05:47:10;;;;;;;2.53;2.33;;;;;;;26.67;44.73;101728.38;5027247;28;20064;-70
2022/07/13 05:49:36;;;;;;;2.55;2.35;;;;;;;26.72;44.83;101717.47;5026634;28;20132;-70
2022/07/13 05:52:01;;;;;;;2.60;2.40;;;;;;;26.72;44.79;101722.84;5026438;28;20085;-70
2022/07/13 05:54:26;;;;;;;2.33;2.13;;;;;;;26.72;44.86;101719.28;5026886;28;20060;-70
2022/07/13 05:56:52;;;;;;;2.70;2.30;;;;;;;26.73;44.79;101721.91;5026427;28;20052;-71
2022/07/13 05:59:17;;;;;;;2.58;2.38;;;;;;;26.78;44.65;101721.72;5027267;28;20064;-71
2022/07/13 06:01:43;;;;;;;2.90;2.60;;;;;;;26.80;44.42;101727.88;5026717;28;20044;-70
2022/07/13 06:04:08;;;;;;;2.42;2.22;;;;;;;26.81;44.41;101727.84;5026030;28;20029;-70
2022/07/13 06:06:33;;;;;;;2.70;2.40;;;;;;;26.82;44.41;101720.69;5026606;28;20029;-70
2022/07/13 06:08:59;;;;;;;2.65;2.30;;;;;;;26.83;44.56;101725.97;5026378;28;20132;-70
2022/07/13 06:11:24;;;;;;;3.88;2.40;;;;;;;26.84;44.42;101733.03;5026415;28;20061;-70
2022/07/13 06:13:49;;;;;;;2.63;2.40;;;;;;;26.86;44.24;101727.63;5027579;28;20091;-71
2022/07/13 06:16:15;;;;;;;2.75;2.13;;;;;;;26.86;44.30;101735.66;5026961;28;20029;-71
2022/07/13 06:18:40;;;;;;;3.00;2.30;;;;;;;26.93;44.19;101726.50;5026980;28;20045;-70
2022/07/13 06:21:06;;;;;;;2.40;2.20;;;;;;;26.92;44.25;101730.09;5025656;28;20044;-71
2022/07/13 06:23:31;;;;;;;2.88;2.40;;;;;;;26.98;44.11;101730.72;5026083;28;20091;-71
2022/07/13 06:25:58;;;;;;;3.03;2.20;;;;;;;27.00;44.19;101736.88;5026461;28;20025;-70
2022/07/13 06:28:23;;;;;;;2.65;2.25;;;;;;;27.09;44.16;101732.06;5025670;28;20475;-70
2022/07/13 06:30:49;;;;;;;3.25;2.08;;;;;;;27.14;43.77;101730.09;5026203;28;20037;-70
2022/07/13 06:33:14;;;;;;;2.50;2.30;;;;;;;27.15;43.95;101724.66;5025031;28;20032;-71
2022/07/13 06:35:39;;;;;;;2.50;2.30;;;;;;;27.21;43.74;101734.22;5024832;28;20140;-71
2022/07/13 06:38:05;;;;;;;3.08;2.20;;;;;;;27.21;43.76;101731.56;5025945;28;20112;-71
2022/07/13 06:40:30;;;;;;;2.40;2.20;;;;;;;27.20;43.52;101736.03;5026185;28;20075;-70
2022/07/13 06:42:55;;;;;;;2.70;2.38;;;;;;;27.18;43.77;101726.34;5025797;28;20806;-70
2022/07/13 06:45:24;;;;;;;2.40;2.17;;;;;;;27.22;43.82;101731.50;5026807;28;20038;-70
2022/07/13 06:47:51;;;;;;;2.35;2.10;;;;;;;27.19;43.75;101720.94;5026127;28;20033;-70
2022/07/13 06:50:17;;;;;;;2.38;2.17;;;;;;;27.22;43.68;101715.44;5025657;28;20052;-70
2022/07/13 06:52:44;;;;;;;3.00;2.10;;;;;;;27.26;43.51;101719.75;5025359;28;20724;-70
2022/07/13 06:55:10;;;;;;;2.60;2.28;;;;;;;27.25;43.74;101722.47;5026035;28;20041;-70
2022/07/13 06:57:36;;;;;;;2.58;2.38;;;;;;;27.24;43.63;101724.28;5026034;28;20144;-70
2022/07/13 07:00:03;;;;;;;2.50;2.20;;;;;;;27.22;43.74;101715.44;5025777;28;20530;-70
2022/07/13 07:02:28;;;;;;;2.50;2.20;;;;;;;27.26;43.82;101716.19;5025580;28;20033;-70
2022/07/13 07:04:54;;;;;;;2.38;2.17;;;;;;;27.26;43.70;101713.50;5025959;28;20037;-70
2022/07/13 07:07:19;;;;;;;2.95;2.40;;;;;;;27.26;43.77;101721.53;5027792;28;20487;-70
2022/07/13 07:09:45;;;;;;;2.25;2.05;;;;;;;27.25;43.90;101709.97;5030396;28;20195;-70
2022/07/13 07:12:10;;;;;;;2.50;2.30;;;;;;;27.29;43.73;101710.69;5029297;28;20112;-70
2022/07/13 07:14:37;;;;;;;2.28;2.00;;;;;;;27.31;43.58;101709.69;5029738;28;20103;-70
2022/07/13 07:17:03;;;;;;;2.50;2.30;;;;;;;27.32;43.86;101707.91;5029754;28;20049;-70
2022/07/13 07:19:28;;;;;;;2.30;2.10;;;;;;;27.32;43.77;101711.44;5029418;28;20029;-70
2022/07/13 07:21:54;;;;;;;2.40;2.13;;;;;;;27.30;43.59;101710.63;5028739;28;20033;-71
2022/07/13 07:24:20;;;;;;;2.35;2.15;;;;;;;27.29;43.87;101708.88;5030057;28;20506;-70
2022/07/13 07:26:47;;;;;;;2.40;2.20;;;;;;;27.31;43.79;101708.81;5029687;28;20029;-70
2022/07/13 07:29:13;;;;;;;2.17;1.98;;;;;;;27.29;43.82;101706.22;5027905;28;20116;-70
2022/07/13 07:31:38;;;;;;;2.65;2.30;;;;;;;27.26;43.97;101703.69;5029155;28;20116;-70
2022/07/13 07:34:04;;;;;;;2.42;2.08;;;;;;;27.27;43.91;101705.38;5029692;28;20055;-70
2022/07/13 07:36:29;;;;;;;2.65;2.40;;;;;;;27.28;43.82;101709.81;5029255;28;20033;-70
2022/07/13 07:38:54;;;;;;;2.20;2.00;;;;;;;27.29;43.73;101706.22;5029469;28;20486;-70
2022/07/13 07:41:20;;;;;;;2.60;2.10;;;;;;;27.29;43.72;101700.84;5029235;28;20037;-70
2022/07/13 07:43:46;;;;;;;2.40;2.20;;;;;;;27.31;43.71;101708.81;5029101;28;20368;-70
2022/07/13 07:46:12;;;;;;;2.30;2.10;;;;;;;27.33;43.73;101710.47;5029687;28;20039;-70
2022/07/13 07:48:37;;;;;;;2.78;2.10;;;;;;;27.32;43.82;101714.13;5027963;28;20427;-70
2022/07/13 07:51:04;;;;;;;2.30;2.10;;;;;;;27.34;43.53;101709.56;5028277;28;20029;-70
2022/07/13 07:53:29;;;;;;;2.30;2.10;;;;;;;27.36;43.90;101702.34;5029507;28;20475;-71
2022/07/13 07:55:55;;;;;;;2.20;2.00;;;;;;;27.36;43.85;101693.44;5029410;28;20086;-70
2022/07/13 07:58:20;;;;;;;2.30;2.00;;;;;;;27.40;43.79;101697.69;5029227;28;20555;-71
2022/07/13 08:00:45;;;;;;;2.58;2.30;;;;;;;27.40;43.62;101693.22;5028765;28;20071;-70
2022/07/13 08:03:11;;;;;;;2.42;2.17;;;;;;;27.42;43.70;101694.03;5029486;28;20068;-71
2022/07/13 08:05:37;;;;;;;2.45;2.20;;;;;;;27.44;43.75;101696.66;5027687;28;20041;-70
2022/07/13 08:08:04;;;;;;;2.17;1.98;;;;;;;27.43;43.64;101700.25;5029310;28;20033;-71
2022/07/13 08:10:30;;;;;;;2.75;2.10;;;;;;;27.43;43.94;101706.50;5028615;28;20027;-71
2022/07/13 08:13:03;;;;;;;2.75;2.30;;;;;;;27.47;43.81;101707.22;5029334;28;20041;-71
2022/07/13 08:15:29;;;;;;;2.40;2.10;;;;;;;27.50;43.62;101711.56;5028405;28;20502;-70
2022/07/13 08:17:55;;;;;;;2.40;2.20;;;;;;;27.48;43.98;101702.72;5029254;28;20041;-71
2022/07/13 08:20:20;;;;;;;2.50;2.20;;;;;;;27.52;43.90;101699.00;5027426;28;20068;-71
2022/07/13 08:22:46;;;;;;;2.40;2.10;;;;;;;27.53;44.04;101704.28;5028679;28;20029;-70
2022/07/13 08:25:11;;;;;;;2.50;2.10;;;;;;;27.55;43.69;101694.41;5029049;28;20201;-71
2022/07/13 08:27:36;;;;;;;2.40;2.10;;;;;;;27.55;43.91;101688.16;5028748;28;20021;-71
2022/07/13 08:30:02;;;;;;;2.70;2.40;;;;;;;27.54;43.94;101684.63;5028295;28;20124;-71
2022/07/13 08:32:27;;;;;;;2.20;2.00;;;;;;;27.57;43.73;101687.13;5027129;28;20033;-71
2022/07/13 08:40:21;;;;;;;;;;;;;;;27.66;43.82;101691.22;5028908;28;20048;-71
2022/07/13 08:42:47;;;;;;;2.60;2.30;;;;;;;27.69;43.55;101699.16;5027995;28;19917;-71
2022/07/13 08:45:13;;;;;;;2.38;2.17;;;;;;;27.69;43.80;101693.78;5028511;28;20041;-71
2022/07/13 08:47:40;;;;;;;2.30;2.10;;;;;;;27.72;43.63;101686.47;5028566;28;20030;-70
2022/07/13 08:50:08;;;;;;;2.40;2.20;;;;;;;27.75;43.55;101685.47;5027775;28;20842;-70
2022/07/13 08:52:35;;;;;;;2.30;2.10;;;;;;;27.77;43.73;101688.94;5027701;28;20053;-71
2022/07/13 08:55:05;;;;;;;2.30;2.00;;;;;;;27.83;43.61;101688.66;5028006;28;20056;-71
2022/07/13 08:57:34;;;;;;;3.67;2.30;;;;;;;27.83;43.54;101683.28;5028299;28;20108;-71
2022/07/13 09:00:00;;;;;;;2.58;2.22;;;;;;;27.86;43.61;101685.84;5027835;28;20464;-70
2022/07/13 09:02:25;;;;;;;2.33;2.03;;;;;;;27.88;43.45;101680.41;5028100;28;20025;-71
2022/07/13 09:04:51;;;;;;;2.28;2.08;;;;;;;27.90;43.29;101684.75;5027676;28;20059;-71
2022/07/13 09:07:17;;;;;;;2.17;1.98;;;;;;;27.91;43.44;101680.28;5028015;28;20057;-70
2022/07/13 09:09:42;;;;;;;2.80;2.10;;;;;;;27.93;43.51;101686.44;5028090;28;20446;-70
2022/07/13 09:12:15;;;;;;;2.20;2.00;;;;;;;27.93;42.94;101686.44;5027033;28;20086;-70
2022/07/13 09:14:41;;;;;;;2.38;2.03;;;;;;;27.95;43.36;101687.22;5027404;28;20074;-70
2022/07/13 09:17:06;;;;;;;2.30;2.05;;;;;;;27.97;43.12;101691.59;5027742;28;20454;-70
2022/07/13 09:19:38;;;;;;;2.22;2.00;;;;;;;27.97;43.37;101696.06;5027824;28;20033;-71
2022/07/13 09:22:13;;;;;;;2.50;2.00;;;;;;;27.99;43.34;101691.53;5027119;28;20033;-71
2022/07/13 09:24:46;;;;;;;2.60;2.22;;;;;;;28.00;43.24;101688.75;5026542;28;20089;-71
2022/07/13 09:27:13;;;;;;;2.75;2.45;;;;;;;28.02;43.13;101691.38;5027842;28;20133;-71
2022/07/13 09:29:38;;;;;;;2.30;2.10;;;;;;;28.04;43.22;101690.38;5026950;28;20053;-72
2022/07/13 09:32:09;;;;;;;2.60;2.30;;;;;;;28.04;43.19;101695.72;5026716;28;20111;-71
2022/07/13 09:34:51;;;;;;;2.20;2.00;;;;;;;28.05;43.11;101685.88;5027060;28;20560;-71
2022/07/13 09:37:27;;;;;;;2.42;2.00;;;;;;;28.07;43.35;101679.47;5027353;28;20108;-72
2022/07/13 09:40:08;;;;;;;2.40;2.20;;;;;;;28.08;43.08;101696.44;5027561;28;20041;-72
2022/07/13 09:42:35;;;;;;;2.72;2.20;;;;;;;28.09;43.14;101693.69;5026749;28;20036;-72
2022/07/13 09:47:55;;;;;;;2.40;2.10;;;;;;;28.12;43.27;101693.53;5027766;28;20064;-71
2022/07/13 09:50:22;;;;;;;2.30;2.10;;;;;;;28.12;43.60;101701.59;5026266;28;20053;-70
2022/07/13 09:52:49;;;;;;;2.13;1.88;;;;;;;28.12;43.28;101695.34;5026664;28;20121;-70
2022/07/13 09:55:24;;;;;;;2.22;2.03;;;;;;;28.13;43.15;101706.03;5027012;28;20041;-70
2022/07/13 09:57:52;;;;;;;2.58;2.20;;;;;;;28.14;43.16;101706.91;5026774;28;20035;-70
2022/07/13 10:00:19;;;;;;;2.10;1.90;;;;;;;28.15;43.09;101704.16;5027086;28;20060;-71
2022/07/13 10:02:48;;;;;;;2.53;2.25;;;;;;;28.16;43.03;101705.91;5025090;28;20116;-71
2022/07/13 10:05:16;;;;;;;2.40;2.20;;;;;;;28.18;43.25;101709.38;5024880;28;20032;-70
2022/07/13 10:07:43;;;;;;;2.30;2.08;;;;;;;28.20;43.01;101706.63;5022089;28;20107;-70
2022/07/13 10:10:11;;;;;;;2.53;2.13;;;;;;;28.21;43.44;101717.28;5026677;28;20018;-70
2022/07/13 10:12:36;;;;;;;2.50;2.30;;;;;;;28.22;43.19;101712.81;5026266;28;20589;-71
2022/07/13 10:15:03;;;;;;;2.30;2.10;;;;;;;28.21;43.35;101706.56;5026932;28;20033;-71
2022/07/13 10:17:29;;;;;;;2.72;2.00;;;;;;;28.21;43.51;101709.25;5027342;28;20060;-71
2022/07/13 10:19:54;;;;;;;2.47;2.25;;;;;;;28.24;43.25;101710.91;5026059;28;20621;-71
2022/07/13 10:22:23;;;;;;;2.50;2.10;;;;;;;28.25;43.38;101712.63;5026254;28;20021;-71
2022/07/13 10:24:52;;;;;;;2.60;2.20;;;;;;;28.25;43.21;101713.50;5026280;28;20862;-71
2022/07/13 10:27:22;;;;;;;2.55;2.22;;;;;;;28.25;43.45;101718.88;5026166;28;20090;-71
2022/07/13 10:29:55;;;;;;;2.30;2.10;;;;;;;28.28;43.26;101720.56;5026825;28;20037;-71
2022/07/13 10:32:26;;;;;;;2.60;2.20;;;;;;;28.29;43.10;101711.56;5025978;28;20112;-71
2022/07/13 10:34:53;;;;;;;2.38;2.17;;;;;;;28.28;43.57;101720.56;5024423;28;20025;-71
2022/07/13 10:37:18;;;;;;;2.35;2.15;;;;;;;28.31;43.17;101722.22;5026514;28;20074;-71
2022/07/13 10:40:10;;;;;;;2.30;2.10;;;;;;;28.33;43.51;101723.00;5026685;28;20057;-71
2022/07/13 10:42:54;;;;;;;3.17;2.30;;;;;;;28.34;43.33;101730.13;5017158;28;20064;-71
2022/07/13 10:45:38;;;;;;;;;;;;;;;28.37;43.31;101728.16;5026888;28;20491;-70
2022/07/13 10:48:22;;;;;;;2.28;2.08;;;;;;;28.36;43.25;101729.09;5026104;28;19928;-71
2022/07/13 10:50:52;;;;;;;;;;;;;;;28.38;43.04;101729.91;5025720;28;20041;-71
2022/07/13 10:53:19;;;;;;;2.33;2.10;;;;;;;28.40;43.42;101724.47;5025760;28;19972;-71
2022/07/13 10:55:47;;;;;;;2.85;2.42;;;;;;;28.39;43.26;101728.09;5026188;28;20467;-71
2022/07/13 10:58:31;;;;;;;3.75;2.30;;;;;;;28.39;43.17;101733.44;5025464;28;20044;-71
2022/07/13 11:00:57;;;;;;;2.38;2.17;;;;;;;28.42;43.10;101727.97;5025868;28;20484;-71
2022/07/13 11:03:28;;;;;;;2.50;2.20;;;;;;;28.42;43.07;101728.81;5026415;28;20022;-71
2022/07/13 11:06:23;;;;;;;2.40;2.20;;;;;;;28.42;43.31;101736.84;5025981;28;20419;-71
2022/07/13 11:09:08;;;;;;;2.33;2.10;;;;;;;28.40;43.52;101733.38;5026525;28;20030;-71
2022/07/13 11:11:33;;;;;;;2.40;2.03;;;;;;;28.45;43.42;101742.09;5026021;28;20040;-71
2022/07/13 11:13:59;;;;;;;2.50;2.30;;;;;;;28.39;43.59;101745.06;5025776;28;20045;-71
2022/07/13 11:16:49;;;;;;;2.95;2.28;;;;;;;28.34;43.85;101746.22;5026162;28;20778;-71
2022/07/13 11:19:15;;;;;;;2.60;2.30;;;;;;;28.36;43.77;101741.66;5025609;28;20125;-71
2022/07/13 11:22:11;;;;;;;3.25;2.10;;;;;;;28.36;43.52;101745.19;5024836;28;20547;-71
2022/07/13 11:27:40;;;;;;;2.35;2.15;;;;;;;28.38;43.83;101742.44;5026420;28;20628;-71
2022/07/13 11:30:07;;;;;;;3.85;2.10;;;;;;;28.43;43.67;101743.09;5025045;28;20033;-71
2022/07/13 11:32:32;;;;;;;2.88;2.17;;;;;;;28.48;43.62;101738.41;5025561;28;20037;-71
2022/07/13 11:34:59;;;;;;;3.28;2.20;;;;;;;28.48;43.24;101743.75;5024397;28;20086;-71
2022/07/13 11:37:25;;;;;;;2.50;2.30;;;;;;;28.52;43.21;101743.53;5025667;28;20029;-71